M I D A S
Marine Information and Data Acquisition System
Tripno 1423 of the Zeeleeuw from 2008-02-11 09:12:56 to 2008-02-11 16:50:57
Back to CruiseResearch ActivitiesStationsMapUnderway DataData graphs

EquipmentUnitsComment
TimeDGPSUTC
LatitudeDGPSDM.mWGS84
LongitudeDGPSDM.mWGS84
HeadingGyrodeg 
SOGDGPSknotsSpeed over ground
COGDGPSdegCourse over ground
DepthEcho soundermeters200 kHz
Missing or incorrect values are displayed as -999
Navigation data collected by the RV Zeeleeuw from 2008-02-11 09:13:46 to 2008-02-11 20:30:56
                                                                                    Next 1000 lines
Time Latitude Longitude Heading SOG COG Depth
2008-02-11 09:13:55 51°13.663 2°55.953 116 0.7 301 -999
2008-02-11 09:14:00 51°13.664 2°55.951 115.9 0.9 296 -999
2008-02-11 09:14:06 51°13.664 2°55.949 115.8 1.2 299 -999
2008-02-11 09:14:11 51°13.665 2°55.946 115.4 1.4 300 -999
2008-02-11 09:14:16 51°13.666 2°55.944 115.2 1.5 300 -999
2008-02-11 09:14:20 51°13.667 2°55.941 114.8 1.7 299 -999
2008-02-11 09:14:25 51°13.668 2°55.937 114.6 1.8 299 -999
2008-02-11 09:14:31 51°13.67 2°55.933 114.6 2 300 -999
2008-02-11 09:14:36 51°13.671 2°55.929 114.6 2.1 299 -999
2008-02-11 09:14:41 51°13.673 2°55.925 114.6 2.1 300 -999
2008-02-11 09:14:46 51°13.674 2°55.92 114.8 2.3 299 -999
2008-02-11 09:14:50 51°13.675 2°55.916 114.8 2.4 299 -999
2008-02-11 09:14:56 51°13.678 2°55.911 114.7 2.5 298 -999
2008-02-11 09:15:01 51°13.679 2°55.905 113.9 2.5 298 -999
2008-02-11 09:15:06 51°13.681 2°55.901 112.8 2.5 296 -999
2008-02-11 09:15:11 51°13.683 2°55.895 111.1 2.6 296 -999
2008-02-11 09:15:16 51°13.684 2°55.89 109.2 2.5 293 -999
2008-02-11 09:15:21 51°13.685 2°55.885 107.1 2.5 291 -999
2008-02-11 09:15:26 51°13.686 2°55.88 105.1 2.5 288 -999
2008-02-11 09:15:31 51°13.687 2°55.874 103.7 2.5 286 -999
2008-02-11 09:15:35 51°13.688 2°55.87 102.2 2.5 285 -999
2008-02-11 09:15:41 51°13.689 2°55.863 100.7 2.5 284 -999
2008-02-11 09:15:46 51°13.69 2°55.858 99.7 2.5 284 -999
2008-02-11 09:15:51 51°13.691 2°55.852 98.6 2.6 284 -999
2008-02-11 09:15:55 51°13.691 2°55.848 97.9 2.6 283 -999
2008-02-11 09:16:00 51°13.692 2°55.842 96.6 2.6 282 -999
2008-02-11 09:16:06 51°13.693 2°55.836 95.6 2.6 282 -999
2008-02-11 09:16:11 51°13.694 2°55.83 94.4 2.6 280 -999
2008-02-11 09:16:15 51°13.694 2°55.826 93.3 2.6 280 -999
2008-02-11 09:16:20 51°13.695 2°55.82 92.1 2.5 279 -999
2008-02-11 09:16:25 51°13.696 2°55.815 90.7 2.5 278 -999
2008-02-11 09:16:31 51°13.696 2°55.808 89.9 2.4 278 -999
2008-02-11 09:16:36 51°13.697 2°55.803 88.8 2.3 276 -999
2008-02-11 09:16:40 51°13.697 2°55.799 87.9 2.2 277 -999
2008-02-11 09:16:45 51°13.697 2°55.795 87.4 2.2 276 -999
2008-02-11 09:16:51 51°13.698 2°55.789 86.5 2.1 276 9.3
2008-02-11 09:16:55 51°13.698 2°55.785 85.7 2 275 9.5
2008-02-11 09:17:01 51°13.698 2°55.78 85.1 2 275 -999
2008-02-11 09:17:05 51°13.698 2°55.777 84.3 1.9 274 10
2008-02-11 09:17:10 51°13.698 2°55.773 83.7 1.8 273 -999
2008-02-11 09:17:16 51°13.699 2°55.768 82.9 1.8 271 -999
2008-02-11 09:17:21 51°13.699 2°55.764 82.2 1.7 274 -999
2008-02-11 09:17:26 51°13.699 2°55.761 81.5 1.4 274 -999
2008-02-11 09:17:30 51°13.699 2°55.759 80.1 1.1 277 -999
2008-02-11 09:17:35 51°13.699 2°55.758 78.4 0.8 279 -999
2008-02-11 09:17:41 51°13.7 2°55.756 75 0.6 299 -999
2008-02-11 09:17:46 51°13.701 2°55.755 71.8 0.4 317 -999
2008-02-11 09:17:51 51°13.701 2°55.755 68.2 0.4 351 -999
2008-02-11 09:17:55 51°13.702 2°55.756 64.5 0.6 15 -999
2008-02-11 09:18:01 51°13.703 2°55.756 60.3 0.7 23 -999
2008-02-11 09:18:06 51°13.703 2°55.756 56.1 0.6 7 -999
2008-02-11 09:18:11 51°13.704 2°55.756 52.9 0.4 346 -999
2008-02-11 09:18:16 51°13.704 2°55.755 50 0.5 296 -999
2008-02-11 09:18:20 51°13.704 2°55.754 47.1 0.6 260 -999
2008-02-11 09:18:26 51°13.703 2°55.752 44.2 1 249 -999
2008-02-11 09:18:31 51°13.703 2°55.75 41.7 1.1 239 -999
2008-02-11 09:18:36 51°13.702 2°55.748 39.4 1.1 241 -999
2008-02-11 09:18:40 51°13.701 2°55.746 37.5 1 235 -999
2008-02-11 09:18:45 51°13.701 2°55.744 35.7 1 237 -999
2008-02-11 09:18:51 51°13.699 2°55.742 34.1 1 218 -999
2008-02-11 09:18:56 51°13.699 2°55.741 33 0.7 232 -999
2008-02-11 09:19:00 51°13.698 2°55.74 31.6 0.3 253 -999
2008-02-11 09:19:05 51°13.699 2°55.74 28.8 0.4 339 -999
2008-02-11 09:19:08 51°13.7 2°55.739 6.7 -999 353 4.5
2008-02-11 09:19:08 51°13.7 2°55.739 351.3 -999 175 -999
2008-02-11 09:19:08 51°13.7 2°55.739 338.4 -999 170 -999
2008-02-11 09:19:08 51°13.7 2°55.739 358.1 -999 11 -999
2008-02-11 09:19:08 51°13.7 2°55.739 333.3 -999 29 -999
2008-02-11 09:19:08 51°13.7 2°55.739 336.4 -999 182 -999
2008-02-11 09:19:08 51°13.7 2°55.739 334.5 -999 354 10
2008-02-11 09:19:08 51°13.7 2°55.739 341.6 -999 358 -999
2008-02-11 09:19:08 51°13.7 2°55.739 14.4 -999 180 -999
2008-02-11 09:19:08 51°13.7 2°55.739 24.4 0.3 357 -999
2008-02-11 09:19:08 51°13.7 2°55.739 345.9 -999 335 -999
2008-02-11 09:19:08 51°13.7 2°55.739 19.8 -999 168 4.5
2008-02-11 09:20:11 51°13.7 2°55.739 333 -999 176 9.9
2008-02-11 09:20:14 51°13.7 2°55.739 332.9 -999 188 9.3
2008-02-11 09:20:20 51°13.7 2°55.739 332.9 -999 357 9.1
2008-02-11 09:20:25 51°13.773 2°55.693 333.1 6.3 332 8.9
2008-02-11 09:20:31 51°13.784 2°55.685 333.3 6.9 332 8.2
2008-02-11 09:20:35 51°13.791 2°55.68 333.4 6.4 332 8
2008-02-11 09:20:40 51°13.795 2°55.673 333.4 6.4 333 8.2
2008-02-11 09:20:46 51°13.803 2°55.664 333.4 6.1 333 8.2
2008-02-11 09:20:51 51°13.806 2°55.657 333.4 6.1 334 8.3
2008-02-11 09:20:55 51°13.811 2°55.653 333.7 5.9 335 8.5
2008-02-11 09:21:00 51°13.818 2°55.647 334.4 5.8 335 8.5
2008-02-11 09:21:05 51°13.826 2°55.642 335 5.7 336 8.5
2008-02-11 09:21:11 51°13.836 2°55.637 335.8 5.6 336 8.6
2008-02-11 09:21:15 51°13.842 2°55.633 336.1 5.5 336 8.8
2008-02-11 09:21:20 51°13.849 2°55.629 336.3 5.5 336 8.9
2008-02-11 09:21:25 51°13.856 2°55.624 336.2 5.4 336 8.9
2008-02-11 09:21:30 51°13.863 2°55.619 336 5.3 336 8.8
2008-02-11 09:21:35 51°13.87 2°55.614 335.9 5.3 335 8.8
2008-02-11 09:21:40 51°13.876 2°55.609 335.6 5.3 335 8.8
2008-02-11 09:21:45 51°13.883 2°55.605 335.5 5.2 336 9.1
2008-02-11 09:21:50 51°13.889 2°55.599 335.4 5.2 335 8.8
2008-02-11 09:21:55 51°13.896 2°55.595 335.1 5.2 334 9.4
2008-02-11 09:22:00 51°13.902 2°55.589 334.8 5.2 334 9.1
2008-02-11 09:22:06 51°13.91 2°55.583 334.7 5.3 334 9.1
2008-02-11 09:22:10 51°13.915 2°55.579 334.7 5.3 335 9.2
2008-02-11 09:22:15 51°13.922 2°55.574 334.9 5.3 335 9.2
2008-02-11 09:22:21 51°13.93 2°55.568 335.1 5.4 335 -999
2008-02-11 09:22:26 51°13.937 2°55.563 335.3 5.4 336 -999
2008-02-11 09:22:31 51°13.943 2°55.558 335.7 5.4 336 9.3
2008-02-11 09:22:35 51°13.949 2°55.554 336.3 5.4 337 9.3
2008-02-11 09:22:40 51°13.956 2°55.55 336.9 5.5 337 -999
2008-02-11 09:22:46 51°13.965 2°55.544 337.3 5.4 337 9.3
2008-02-11 09:22:50 51°13.97 2°55.54 337.3 5.5 337 9.3
2008-02-11 09:22:55 51°13.977 2°55.535 336.9 5.5 336 9.3
2008-02-11 09:23:00 51°13.985 2°55.53 336.6 5.6 337 9.9
2008-02-11 09:23:06 51°13.993 2°55.524 336.5 5.6 337 9.3
2008-02-11 09:23:11 51°14 2°55.519 336.5 5.6 337 9.3
2008-02-11 09:23:15 51°14.006 2°55.515 336.7 5.6 337 9.4
2008-02-11 09:23:20 51°14.013 2°55.51 336.7 5.6 336 9.4
2008-02-11 09:23:25 51°14.02 2°55.506 336.8 5.6 337 -999
2008-02-11 09:23:31 51°14.029 2°55.5 336.7 5.6 336 10
2008-02-11 09:23:36 51°14.036 2°55.494 336.5 5.6 335 9.4
2008-02-11 09:23:40 51°14.042 2°55.49 336.3 5.6 335 9.8
2008-02-11 09:23:45 51°14.049 2°55.485 336.1 5.6 336 -999
2008-02-11 09:23:50 51°14.055 2°55.479 336.1 5.6 335 -999
2008-02-11 09:23:55 51°14.062 2°55.474 336 5.6 334 9.4
2008-02-11 09:24:00 51°14.069 2°55.469 335.9 5.6 334 -999
2008-02-11 09:24:06 51°14.078 2°55.462 335.5 5.6 334 9.4
2008-02-11 09:24:11 51°14.085 2°55.457 335.3 5.6 334 10.3
2008-02-11 09:24:16 51°14.092 2°55.451 335.2 5.7 335 9.4
2008-02-11 09:24:21 51°14.099 2°55.446 334.9 5.8 334 -999
2008-02-11 09:24:26 51°14.106 2°55.44 334.4 5.9 333 -999
2008-02-11 09:24:31 51°14.114 2°55.434 333.8 6 332 -999
2008-02-11 09:24:35 51°14.119 2°55.428 333.2 6.1 332 -999
2008-02-11 09:24:41 51°14.128 2°55.421 332.5 6.1 331 9.4
2008-02-11 09:24:46 51°14.136 2°55.414 331.8 6.2 330 -999
2008-02-11 09:24:51 51°14.143 2°55.407 330.6 6.2 329 -999
2008-02-11 09:24:55 51°14.149 2°55.401 329.5 6.3 328 -999
2008-02-11 09:25:01 51°14.158 2°55.392 329 6.3 328 9.4
2008-02-11 09:25:06 51°14.166 2°55.385 328.6 6.3 327 -999
2008-02-11 09:25:11 51°14.173 2°55.377 327.9 6.3 326 -999
2008-02-11 09:25:15 51°14.179 2°55.37 327.2 6.4 326 -999
2008-02-11 09:25:20 51°14.186 2°55.362 326.5 6.4 324 -999
2008-02-11 09:25:25 51°14.193 2°55.354 325.4 6.4 323 -999
2008-02-11 09:25:31 51°14.202 2°55.343 323.7 6.4 322 -999
2008-02-11 09:25:36 51°14.208 2°55.334 322.1 6.4 320 -999
2008-02-11 09:25:41 51°14.216 2°55.325 320.7 6.5 320 -999
2008-02-11 09:25:45 51°14.221 2°55.318 319.5 6.5 318 9.7
2008-02-11 09:25:51 51°14.229 2°55.306 318.7 6.5 317 5.7
2008-02-11 09:25:55 51°14.234 2°55.298 317.3 6.5 316 9.5
2008-02-11 09:26:00 51°14.24 2°55.288 316.4 6.5 315 9.8
2008-02-11 09:26:05 51°14.247 2°55.277 315.8 6.5 314 9
2008-02-11 09:26:10 51°14.253 2°55.267 315.1 6.5 313 8.8
2008-02-11 09:26:15 51°14.259 2°55.256 314.2 6.5 312 8.7
2008-02-11 09:26:20 51°14.265 2°55.246 313.4 6.5 312 8.7
2008-02-11 09:26:26 51°14.272 2°55.232 312.6 6.5 311 8.6
2008-02-11 09:26:30 51°14.277 2°55.224 312.2 6.5 311 8.5
2008-02-11 09:26:35 51°14.283 2°55.213 312.1 6.5 311 8.6
2008-02-11 09:26:40 51°14.289 2°55.202 312.1 6.5 310 8.6
2008-02-11 09:26:46 51°14.296 2°55.188 311.6 6.6 309 8.5
2008-02-11 09:26:50 51°14.3 2°55.179 311.1 6.6 310 8.6
2008-02-11 09:26:55 51°14.306 2°55.168 310.9 6.6 309 8.5
2008-02-11 09:27:00 51°14.312 2°55.156 310.8 6.8 309 8.6
2008-02-11 09:27:05 51°14.318 2°55.144 310.8 7 309 9.5
2008-02-11 09:27:10 51°14.324 2°55.132 310.5 7.2 308 9.6
2008-02-11 09:27:15 51°14.331 2°55.119 309.8 7.4 308 9.4
2008-02-11 09:27:20 51°14.337 2°55.106 308.7 7.6 307 9.9
2008-02-11 09:27:26 51°14.345 2°55.089 307.8 7.9 306 9.9
2008-02-11 09:27:31 51°14.352 2°55.074 307.4 8.3 305 9.9
2008-02-11 09:27:35 51°14.357 2°55.062 306.6 8.6 304 9.5
2008-02-11 09:27:40 51°14.364 2°55.045 305.2 8.8 302 9.6
2008-02-11 09:27:46 51°14.371 2°55.024 303.5 9.1 300 9.3
2008-02-11 09:27:51 51°14.377 2°55.006 301.6 9.3 297 8.9
2008-02-11 09:27:55 51°14.382 2°54.99 299.1 9.5 294 8.9
2008-02-11 09:28:00 51°14.387 2°54.971 296.1 9.7 292 8.8
2008-02-11 09:28:05 51°14.391 2°54.95 293.7 9.9 289 8.8
2008-02-11 09:28:11 51°14.396 2°54.925 291.7 10.1 287 8.5
2008-02-11 09:28:15 51°14.399 2°54.907 289.5 10.3 285 8.8
2008-02-11 09:28:20 51°14.403 2°54.885 287.9 10.4 284 8.7
2008-02-11 09:28:25 51°14.406 2°54.863 287.1 10.5 284 8.7
2008-02-11 09:28:30 51°14.409 2°54.84 286.2 10.6 282 8.6
2008-02-11 09:28:35 51°14.412 2°54.817 284.6 10.7 281 8.9
2008-02-11 09:28:40 51°14.414 2°54.793 283.3 10.8 279 8.6
2008-02-11 09:28:45 51°14.416 2°54.769 282 10.9 278 8.6
2008-02-11 09:28:50 51°14.418 2°54.745 280.5 10.9 276 8.6
2008-02-11 09:28:55 51°14.419 2°54.721 278.6 11 274 8.6
2008-02-11 09:29:00 51°14.42 2°54.697 276.7 11.1 272 8.7
2008-02-11 09:29:05 51°14.42 2°54.672 275 11.2 272 8.7
2008-02-11 09:29:10 51°14.421 2°54.647 274.1 11.2 271 8.7
2008-02-11 09:29:15 51°14.42 2°54.622 273.3 11.3 270 8.6
2008-02-11 09:29:20 51°14.42 2°54.597 272.2 11.4 268 8.6
2008-02-11 09:29:26 51°14.419 2°54.567 270.6 11.5 266 8.6
2008-02-11 09:29:31 51°14.417 2°54.541 268.8 11.5 265 8.6
2008-02-11 09:29:35 51°14.416 2°54.521 267.2 11.5 263 8.5
2008-02-11 09:29:40 51°14.413 2°54.496 265.5 11.5 262 8.5
2008-02-11 09:29:46 51°14.409 2°54.466 263.8 11.5 258 8.2
2008-02-11 09:29:51 51°14.405 2°54.442 261.6 11.5 255 8.1
2008-02-11 09:29:55 51°14.401 2°54.422 257.6 11.4 252 7.9
2008-02-11 09:30:00 51°14.395 2°54.399 253.9 11.4 248 7.6
2008-02-11 09:30:05 51°14.389 2°54.376 250.3 11.4 245 7.5
2008-02-11 09:30:10 51°14.382 2°54.354 246.7 11.4 242 7.5
2008-02-11 09:30:15 51°14.374 2°54.332 243.8 11.4 241 7.4
2008-02-11 09:30:20 51°14.366 2°54.309 241.3 11.5 240 7.3
2008-02-11 09:30:25 51°14.358 2°54.287 240.6 11.6 240 7.3
2008-02-11 09:30:30 51°14.35 2°54.265 240.4 11.6 240 7.3
2008-02-11 09:30:35 51°14.342 2°54.243 240.1 11.6 240 7.3
2008-02-11 09:30:40 51°14.334 2°54.22 240 11.7 241 7.2
2008-02-11 09:30:45 51°14.327 2°54.197 240.9 11.7 242 7.2
2008-02-11 09:30:50 51°14.319 2°54.174 242.1 11.7 242 7.2
2008-02-11 09:30:55 51°14.311 2°54.152 242.7 11.7 241 7.2
2008-02-11 09:31:00 51°14.304 2°54.129 242 11.7 241 7.1
2008-02-11 09:31:05 51°14.296 2°54.107 241.1 11.7 241 5.3
2008-02-11 09:31:10 51°14.288 2°54.084 240.9 11.7 240 7.2
2008-02-11 09:31:15 51°14.28 2°54.062 240.4 11.7 241 7.2
2008-02-11 09:31:20 51°14.272 2°54.039 240.4 11.8 241 7.1
2008-02-11 09:31:25 51°14.265 2°54.015 241 11.8 245 5.3
2008-02-11 09:31:30 51°14.257 2°53.992 243.2 11.7 243 7.1
2008-02-11 09:31:35 51°14.251 2°53.969 244.1 11.8 246 7.1
2008-02-11 09:31:40 51°14.244 2°53.945 245.2 11.8 245 7.2
2008-02-11 09:31:45 51°14.237 2°53.921 245.9 11.9 246 7.2
2008-02-11 09:31:50 51°14.231 2°53.897 246.2 11.8 246 7.2
2008-02-11 09:31:55 51°14.224 2°53.873 247 11.9 248 7.2
2008-02-11 09:32:00 51°14.218 2°53.849 247.9 11.9 247 7.3
2008-02-11 09:32:05 51°14.212 2°53.824 248.4 11.9 248 7.3
2008-02-11 09:32:10 51°14.205 2°53.8 249.1 11.9 247 7.3
2008-02-11 09:32:15 51°14.199 2°53.776 248.8 11.9 247 7.3
2008-02-11 09:32:20 51°14.192 2°53.752 247.9 11.9 245 7.3
2008-02-11 09:32:25 51°14.185 2°53.728 246.9 11.9 246 7.3
2008-02-11 09:32:30 51°14.178 2°53.704 246.6 11.9 245 7.4
2008-02-11 09:32:35 51°14.171 2°53.68 246.2 11.9 246 7.4
2008-02-11 09:32:40 51°14.164 2°53.656 246 11.9 245 5.5
2008-02-11 09:32:45 51°14.157 2°53.632 246 12 245 7.4
2008-02-11 09:32:50 51°14.15 2°53.608 245.9 12 246 7.5
2008-02-11 09:32:55 51°14.144 2°53.583 246.2 12.1 246 -999
2008-02-11 09:33:00 51°14.137 2°53.559 246.4 12.3 246 7.6
2008-02-11 09:33:05 51°14.13 2°53.534 246.7 12.4 246 7.6
2008-02-11 09:33:10 51°14.123 2°53.508 246.7 12.5 247 7.7
2008-02-11 09:33:15 51°14.116 2°53.483 247.1 12.7 247 7.7
2008-02-11 09:33:20 51°14.109 2°53.457 247.6 12.7 247 7.6
2008-02-11 09:33:25 51°14.102 2°53.431 248.4 12.8 247 7.6
2008-02-11 09:33:30 51°14.094 2°53.405 248 12.9 245 7.6
2008-02-11 09:33:35 51°14.087 2°53.379 246.7 12.9 245 7.7
2008-02-11 09:33:40 51°14.079 2°53.353 246 13 245 7.7
2008-02-11 09:33:45 51°14.071 2°53.327 245.5 13.2 245 7.7
2008-02-11 09:33:50 51°14.063 2°53.301 245.4 13.2 244 7.7
2008-02-11 09:33:55 51°14.056 2°53.274 245.4 13.2 246 7.8
2008-02-11 09:34:00 51°14.048 2°53.247 245.9 13.2 245 7.8
2008-02-11 09:34:05 51°14.04 2°53.221 246.1 13.3 244 7.9
2008-02-11 09:34:10 51°14.032 2°53.194 245.8 13.3 245 7.9
2008-02-11 09:34:15 51°14.024 2°53.168 246 13.3 244 8
2008-02-11 09:34:20 51°14.016 2°53.142 245.3 13.4 241 8
2008-02-11 09:34:25 51°14.007 2°53.116 243.1 13.4 243 8
2008-02-11 09:34:30 51°13.997 2°53.091 242.6 13.4 238 8
2008-02-11 09:34:35 51°13.988 2°53.065 240.8 13.4 240 8
2008-02-11 09:34:40 51°13.978 2°53.04 240 13.2 238 8.1
2008-02-11 09:34:45 51°13.969 2°53.015 239.3 13 238 8.1
2008-02-11 09:34:50 51°13.959 2°52.991 238.4 12.9 237 8.2
2008-02-11 09:34:55 51°13.949 2°52.968 237.6 12.8 235 8.1
2008-02-11 09:35:00 51°13.939 2°52.946 235.4 12.6 234 8.1
2008-02-11 09:35:05 51°13.929 2°52.924 234.1 12.4 234 8.2
2008-02-11 09:35:10 51°13.918 2°52.902 233.6 12.2 232 8.2
2008-02-11 09:35:15 51°13.908 2°52.882 232.2 12 232 8.3
2008-02-11 09:35:20 51°13.898 2°52.861 231 11.9 232 8.3
2008-02-11 09:35:25 51°13.888 2°52.84 230.1 11.8 233 8.3
2008-02-11 09:35:30 51°13.879 2°52.818 232 11.7 237 8.3
2008-02-11 09:35:35 51°13.87 2°52.797 235.2 11.6 238 8.3
2008-02-11 09:35:40 51°13.862 2°52.775 236.9 11.5 239 8.3
2008-02-11 09:35:45 51°13.855 2°52.753 238.9 11.4 243 8.3
2008-02-11 09:35:50 51°13.848 2°52.73 241.8 11.4 242 8.3
2008-02-11 09:35:55 51°13.841 2°52.707 242.9 11.4 246 8.3
2008-02-11 09:36:00 51°13.835 2°52.685 245.2 11.3 246 8.4
2008-02-11 09:36:05 51°13.829 2°52.662 247 11.3 248 8.4
2008-02-11 09:36:10 51°13.823 2°52.638 248.3 11.3 248 8.4
2008-02-11 09:36:15 51°13.817 2°52.615 249 11.3 249 8.4
2008-02-11 09:36:20 51°13.812 2°52.592 250 11.3 249 8.5
2008-02-11 09:36:25 51°13.806 2°52.569 250.3 11.3 250 8.5
2008-02-11 09:36:30 51°13.801 2°52.545 250.9 11.2 250 8.5
2008-02-11 09:36:35 51°13.795 2°52.522 251.4 11.1 250 8.5
2008-02-11 09:36:40 51°13.79 2°52.5 251.4 11 249 8.5
2008-02-11 09:36:45 51°13.785 2°52.477 251 10.8 249 8.5
2008-02-11 09:36:50 51°13.779 2°52.455 250.7 10.7 248 8.6
2008-02-11 09:36:55 51°13.774 2°52.434 250.2 10.6 248 8.7
2008-02-11 09:37:00 51°13.768 2°52.412 249.6 10.5 248 8.6
2008-02-11 09:37:05 51°13.763 2°52.391 249.3 10.4 248 8.7
2008-02-11 09:37:11 51°13.756 2°52.366 249.3 10.4 248 8.7
2008-02-11 09:37:15 51°13.752 2°52.349 249.3 10.2 248 8.7
2008-02-11 09:37:20 51°13.747 2°52.328 249.3 10.1 247 8.7
2008-02-11 09:37:25 51°13.741 2°52.308 249.4 10.1 245 8.7
2008-02-11 09:37:30 51°13.734 2°52.288 247.3 10.1 242 8.7
2008-02-11 09:37:35 51°13.728 2°52.269 244.2 10 242 8.7
2008-02-11 09:37:40 51°13.721 2°52.25 242.5 9.9 240 8.7
2008-02-11 09:37:45 51°13.714 2°52.231 241.2 9.9 239 8.8
2008-02-11 09:37:50 51°13.706 2°52.213 239.6 9.9 237 8.7
2008-02-11 09:37:55 51°13.698 2°52.195 237.1 9.9 235 8.8
2008-02-11 09:38:00 51°13.69 2°52.177 234.7 9.9 234 8.8
2008-02-11 09:38:05 51°13.682 2°52.16 233.6 9.8 233 8.8
2008-02-11 09:38:10 51°13.674 2°52.143 232.4 9.8 232 8.8
2008-02-11 09:38:15 51°13.665 2°52.126 231.3 9.8 231 8.8
2008-02-11 09:38:20 51°13.656 2°52.109 229.6 9.9 229 8.8
2008-02-11 09:38:25 51°13.647 2°52.093 228 9.8 229 8.8
2008-02-11 09:38:30 51°13.638 2°52.077 227.3 9.8 228 8.8
2008-02-11 09:38:35 51°13.629 2°52.061 226.4 9.9 228 8.8
2008-02-11 09:38:40 51°13.62 2°52.045 225.9 9.9 228 8.8
2008-02-11 09:38:45 51°13.61 2°52.029 225.6 9.9 228 8.8
2008-02-11 09:38:50 51°13.601 2°52.013 225.8 9.9 228 8.8
2008-02-11 09:38:55 51°13.592 2°51.996 226.2 9.9 228 8.8
2008-02-11 09:39:00 51°13.583 2°51.98 226.4 9.8 228 8.8
2008-02-11 09:39:05 51°13.574 2°51.964 226.4 9.9 228 8.8
2008-02-11 09:39:10 51°13.564 2°51.948 226.2 9.9 227 8.7
2008-02-11 09:39:15 51°13.555 2°51.932 225.9 9.9 227 8.7
2008-02-11 09:39:20 51°13.546 2°51.916 225.6 9.9 228 8.8
2008-02-11 09:39:25 51°13.537 2°51.9 225.6 9.8 228 8.8
2008-02-11 09:39:30 51°13.528 2°51.884 225.6 9.9 228 8.7
2008-02-11 09:39:35 51°13.518 2°51.867 225.6 9.9 228 8.7
2008-02-11 09:39:40 51°13.509 2°51.851 225.9 9.9 228 8.7
2008-02-11 09:39:45 51°13.5 2°51.835 226.1 9.9 228 8.8
2008-02-11 09:39:50 51°13.491 2°51.819 226.1 9.8 228 8.8
2008-02-11 09:39:55 51°13.482 2°51.803 226.1 9.8 228 8.7
2008-02-11 09:40:00 51°13.472 2°51.787 225.9 9.9 228 8.8
2008-02-11 09:40:05 51°13.463 2°51.77 226.3 9.9 228 8.7
2008-02-11 09:40:10 51°13.454 2°51.754 226.7 9.9 229 8.7
2008-02-11 09:40:15 51°13.445 2°51.738 227 9.9 229 8.7
2008-02-11 09:40:20 51°13.436 2°51.721 227.2 9.9 229 8.8
2008-02-11 09:40:25 51°13.427 2°51.705 227.1 9.9 229 8.7
2008-02-11 09:40:30 51°13.418 2°51.688 226.9 9.9 228 8.7
2008-02-11 09:40:35 51°13.409 2°51.672 226.8 9.9 228 8.7
2008-02-11 09:40:40 51°13.4 2°51.656 226.6 9.8 229 8.7
2008-02-11 09:40:45 51°13.39 2°51.639 227.1 9.9 229 8.7
2008-02-11 09:40:50 51°13.382 2°51.623 227 9.8 229 8.6
2008-02-11 09:40:55 51°13.372 2°51.607 226.9 9.8 227 8.6
2008-02-11 09:41:00 51°13.363 2°51.591 226.4 9.9 229 8.6
2008-02-11 09:41:05 51°13.354 2°51.575 226.4 9.8 228 8.6
2008-02-11 09:41:10 51°13.345 2°51.558 226.4 9.9 229 8.6
2008-02-11 09:41:15 51°13.336 2°51.542 226.3 9.9 228 8.6
2008-02-11 09:41:20 51°13.327 2°51.526 226.4 9.9 228 8.6
2008-02-11 09:41:25 51°13.317 2°51.51 226.6 9.9 228 8.5
2008-02-11 09:41:30 51°13.308 2°51.493 226.8 9.9 229 8.5
2008-02-11 09:41:35 51°13.299 2°51.477 227 9.8 228 8.5
2008-02-11 09:41:40 51°13.29 2°51.461 226.9 9.7 229 8.6
2008-02-11 09:41:45 51°13.282 2°51.446 226.5 9.3 228 8.5
2008-02-11 09:41:50 51°13.274 2°51.431 226.2 8.7 231 8.5
2008-02-11 09:41:55 51°13.267 2°51.416 227.4 8.3 234 8.5
2008-02-11 09:42:00 51°13.261 2°51.401 231.3 7.8 238 8.5
2008-02-11 09:42:05 51°13.257 2°51.387 235.1 7.4 242 8.5
2008-02-11 09:42:10 51°13.253 2°51.372 241.8 6.9 247 8.5
2008-02-11 09:42:15 51°13.25 2°51.359 247.3 6.6 250 8.5
2008-02-11 09:42:20 51°13.248 2°51.345 251.3 6.3 254 8.6
2008-02-11 09:42:25 51°13.246 2°51.332 256.5 6 259 8.6
2008-02-11 09:42:30 51°13.245 2°51.319 261.3 5.9 263 8.6
2008-02-11 09:42:35 51°13.244 2°51.306 266.9 5.8 266 8.7
2008-02-11 09:42:40 51°13.245 2°51.294 272 5.7 272 8.7
2008-02-11 09:42:45 51°13.245 2°51.281 278.6 5.6 278 8.7
2008-02-11 09:42:50 51°13.247 2°51.269 285.9 5.5 285 8.7
2008-02-11 09:42:55 51°13.25 2°51.258 291.7 5.4 290 8.8
2008-02-11 09:43:00 51°13.253 2°51.248 300.5 5.2 296 8.8
2008-02-11 09:43:05 51°13.257 2°51.239 307.7 5 302 8.9
2008-02-11 09:43:10 51°13.261 2°51.23 314.9 4.8 310 8.9
2008-02-11 09:43:15 51°13.266 2°51.223 322.1 4.7 315 8.9
2008-02-11 09:43:20 51°13.271 2°51.216 327.7 4.6 321 9
2008-02-11 09:43:25 51°13.276 2°51.212 336.1 4.4 330 9
2008-02-11 09:43:30 51°13.281 2°51.208 343.2 4.2 337 9.1
2008-02-11 09:43:35 51°13.287 2°51.205 348.9 4.1 343 9.1
2008-02-11 09:43:40 51°13.292 2°51.203 357.2 3.9 350 9.1
2008-02-11 09:43:45 51°13.297 2°51.203 4.3 3.8 -999 9.3
2008-02-11 09:43:50 51°13.302 2°51.204 11.2 3.7 8 9.2
2008-02-11 09:43:55 51°13.307 2°51.206 18.2 3.5 15 9.2
2008-02-11 09:44:00 51°13.311 2°51.209 25.2 3.4 21 9.3
2008-02-11 09:44:05 51°13.316 2°51.213 30.7 3.5 31 9.3
2008-02-11 09:44:10 51°13.32 2°51.217 38.2 3.7 35 9.2
2008-02-11 09:44:15 51°13.324 2°51.223 42 4 40 9.4
2008-02-11 09:44:20 51°13.329 2°51.229 45 4.3 42 9.3
2008-02-11 09:44:25 51°13.333 2°51.236 47.2 4.4 47 9.2
2008-02-11 09:44:30 51°13.337 2°51.244 49.9 4.7 47 9.2
2008-02-11 09:44:35 51°13.342 2°51.252 51.5 4.9 47 9.2
2008-02-11 09:44:40 51°13.347 2°51.26 51.7 5.1 45 9.2
2008-02-11 09:44:45 51°13.352 2°51.268 50.4 5.3 44 9.2
2008-02-11 09:44:50 51°13.358 2°51.276 48.6 5.5 41 9.2
2008-02-11 09:44:55 51°13.364 2°51.284 46.5 5.6 42 9.2
2008-02-11 09:45:00 51°13.37 2°51.292 45.4 5.8 40 9.2
2008-02-11 09:45:05 51°13.376 2°51.301 44.7 5.9 41 9.2
2008-02-11 09:45:10 51°13.382 2°51.31 44.4 6 42 9.2
2008-02-11 09:45:15 51°13.388 2°51.319 45.3 6.1 44 9.2
2008-02-11 09:45:20 51°13.394 2°51.329 47.1 6.1 46 9.2
2008-02-11 09:45:25 51°13.4 2°51.339 49.1 6.1 47 9.2
2008-02-11 09:45:30 51°13.405 2°51.348 50.3 5.6 48 9.2
2008-02-11 09:45:35 51°13.41 2°51.357 50.9 5.4 48 9.2
2008-02-11 09:45:40 51°13.415 2°51.365 51.4 5 49 9.2
2008-02-11 09:45:45 51°13.419 2°51.373 52.2 4.6 51 9.2
2008-02-11 09:45:50 51°13.423 2°51.381 53 4.4 51 9.3
2008-02-11 09:45:55 51°13.426 2°51.388 53.9 4.2 51 9.3
2008-02-11 09:46:00 51°13.43 2°51.395 54.6 3.9 52 9.3
2008-02-11 09:46:05 51°13.433 2°51.401 55 3.7 52 9.3
2008-02-11 09:46:10 51°13.436 2°51.407 55.1 3.4 51 9.3
2008-02-11 09:46:15 51°13.439 2°51.413 55.3 3.3 51 9.3
2008-02-11 09:46:20 51°13.441 2°51.418 55.3 3 51 9.3
2008-02-11 09:46:25 51°13.444 2°51.423 55.1 2.8 50 9.3
2008-02-11 09:46:30 51°13.446 2°51.427 54.3 2.6 49 9.3
2008-02-11 09:46:35 51°13.448 2°51.431 53.5 2.5 49 9.3
2008-02-11 09:46:40 51°13.451 2°51.435 53.1 2.3 47 9.3
2008-02-11 09:46:45 51°13.452 2°51.438 52.8 2.2 48 9.3
2008-02-11 09:46:50 51°13.455 2°51.442 52.7 2.1 48 9.3
2008-02-11 09:46:55 51°13.457 2°51.444 52.7 2 47 9.3
2008-02-11 09:47:00 51°13.459 2°51.448 52.9 2 47 9.3
2008-02-11 09:47:05 51°13.461 2°51.45 52.9 1.9 45 9.3
2008-02-11 09:47:10 51°13.463 2°51.453 52.3 1.8 40 9.3
2008-02-11 09:47:15 51°13.464 2°51.456 50.6 1.8 40 9.3
2008-02-11 09:47:20 51°13.466 2°51.458 47.8 1.8 35 9.3
2008-02-11 09:47:25 51°13.468 2°51.46 46 1.8 32 9.3
2008-02-11 09:47:30 51°13.47 2°51.462 44.2 1.8 31 9.3
2008-02-11 09:47:35 51°13.473 2°51.464 42.7 1.7 30 9.3
2008-02-11 09:47:40 51°13.475 2°51.466 41.5 1.7 29 9.3
2008-02-11 09:47:45 51°13.477 2°51.468 41 1.7 27 9.3
2008-02-11 09:47:50 51°13.479 2°51.47 40.6 1.7 29 9.3
2008-02-11 09:47:55 51°13.481 2°51.471 40.5 1.7 29 9.3
2008-02-11 09:48:00 51°13.483 2°51.474 41.1 1.7 30 9.3
2008-02-11 09:48:05 51°13.485 2°51.475 42 1.7 29 9.3
2008-02-11 09:48:10 51°13.487 2°51.477 42.8 1.6 30 9.4
2008-02-11 09:48:15 51°13.489 2°51.479 43.9 1.4 31 9.3
2008-02-11 09:48:20 51°13.49 2°51.48 44.6 1.2 32 9.3
2008-02-11 09:48:25 51°13.491 2°51.481 45 1.1 28 9.4
2008-02-11 09:48:31 51°13.493 2°51.482 45.4 0.9 26 9.3
2008-02-11 09:48:35 51°13.493 2°51.483 46.7 0.7 26 9.3
2008-02-11 09:48:40 51°13.494 2°51.484 48.8 0.6 34 9.3
2008-02-11 09:48:45 51°13.495 2°51.484 51.3 0.6 32 9.3
2008-02-11 09:48:50 51°13.495 2°51.485 53.8 0.5 36 9.3
2008-02-11 09:48:55 51°13.496 2°51.486 55.1 0.5 33 9.3
2008-02-11 09:49:00 51°13.496 2°51.486 56.6 0.4 45 9.3
2008-02-11 09:49:05 51°13.496 2°51.486 57.6 0.3 32 9.4
2008-02-11 09:49:10 51°13.497 2°51.487 58.5 0.3 37 9.4
2008-02-11 09:49:15 51°13.497 2°51.487 59 0.3 35 9.3
2008-02-11 09:49:20 51°13.497 2°51.488 59.5 0.2 42 9.3
2008-02-11 09:49:25 51°13.497 2°51.488 59.9 0.2 36 9.3
2008-02-11 09:49:30 51°13.497 2°51.488 60.2 0.1 45 9.3
2008-02-11 09:49:35 51°13.497 2°51.488 60.5 0.1 4 9.3
2008-02-11 09:49:40 51°13.497 2°51.488 60.8 -999 350 9.3
2008-02-11 09:49:45 51°13.497 2°51.488 61 0.1 270 9.3
2008-02-11 09:49:50 51°13.497 2°51.488 61.1 0.1 263 9.4
2008-02-11 09:49:55 51°13.497 2°51.487 61.2 0.1 286 9.3
2008-02-11 09:50:00 51°13.497 2°51.487 61.2 0.1 241 9.4
2008-02-11 09:50:05 51°13.497 2°51.487 61.3 0.2 262 9.3
2008-02-11 09:50:10 51°13.497 2°51.486 61.4 0.2 259 9.3
2008-02-11 09:50:15 51°13.497 2°51.486 61.5 0.2 256 9.3
2008-02-11 09:50:20 51°13.497 2°51.485 61.5 0.3 256 9.4
2008-02-11 09:50:25 51°13.497 2°51.485 61.4 0.2 259 9.4
2008-02-11 09:50:30 51°13.497 2°51.484 61.3 0.3 268 9.3
2008-02-11 09:50:35 51°13.497 2°51.484 61.2 0.3 257 9.4
2008-02-11 09:50:40 51°13.497 2°51.483 61.2 0.3 257 9.3
2008-02-11 09:50:45 51°13.496 2°51.482 61.1 0.3 249 9.4
2008-02-11 09:50:51 51°13.496 2°51.481 61.1 0.4 258 9.4
2008-02-11 09:50:55 51°13.496 2°51.481 61.1 0.4 245 9.4
2008-02-11 09:51:00 51°13.496 2°51.48 61.1 0.4 256 9.4
2008-02-11 09:51:05 51°13.496 2°51.479 61 0.4 246 9.3
2008-02-11 09:51:10 51°13.495 2°51.478 61 0.4 256 9.4
2008-02-11 09:51:15 51°13.495 2°51.477 60.9 0.4 250 9.4
2008-02-11 09:51:20 51°13.495 2°51.476 60.9 0.5 255 9.4
2008-02-11 09:51:25 51°13.495 2°51.475 60.9 0.5 251 9.4
2008-02-11 09:51:30 51°13.494 2°51.474 60.9 0.5 255 9.4
2008-02-11 09:51:35 51°13.494 2°51.473 60.9 0.5 252 9.4
2008-02-11 09:51:40 51°13.494 2°51.472 60.8 0.5 257 9.4
2008-02-11 09:51:45 51°13.494 2°51.471 60.8 0.6 247 9.3
2008-02-11 09:51:50 51°13.494 2°51.47 60.7 0.5 253 9.3
2008-02-11 09:51:55 51°13.493 2°51.469 60.7 0.5 249 9.3
2008-02-11 09:52:00 51°13.493 2°51.468 60.7 0.6 253 9.3
2008-02-11 09:52:05 51°13.493 2°51.466 60.7 0.6 250 9.3
2008-02-11 09:52:10 51°13.492 2°51.465 60.7 0.6 252 9.4
2008-02-11 09:52:15 51°13.492 2°51.464 60.7 0.6 247 9.4
2008-02-11 09:52:20 51°13.492 2°51.462 60.7 0.6 254 9.4
2008-02-11 09:52:25 51°13.491 2°51.461 60.7 0.7 246 9.4
2008-02-11 09:52:30 51°13.491 2°51.46 60.7 0.7 249 9.4
2008-02-11 09:52:35 51°13.491 2°51.458 60.7 0.7 249 9.4
2008-02-11 09:52:40 51°13.491 2°51.457 60.6 0.7 253 9.4
2008-02-11 09:52:45 51°13.49 2°51.456 60.6 0.7 254 9.4
2008-02-11 09:52:50 51°13.49 2°51.454 60.5 0.7 253 9.4
2008-02-11 09:52:55 51°13.49 2°51.453 60.5 0.7 250 9.4
2008-02-11 09:53:00 51°13.489 2°51.451 60.5 0.7 250 9.4
2008-02-11 09:53:05 51°13.489 2°51.45 60.4 0.7 247 9.4
2008-02-11 09:53:11 51°13.489 2°51.448 60.4 0.7 251 9.4
2008-02-11 09:53:15 51°13.488 2°51.447 60.4 0.7 250 9.3
2008-02-11 09:53:20 51°13.488 2°51.445 60.4 0.7 251 9.4
2008-02-11 09:53:25 51°13.488 2°51.444 60.2 0.8 247 9.4
2008-02-11 09:53:30 51°13.487 2°51.442 60.2 0.8 250 9.3
2008-02-11 09:53:35 51°13.487 2°51.44 60.1 0.8 250 9.4
2008-02-11 09:53:40 51°13.487 2°51.439 60.1 0.8 248 9.4
2008-02-11 09:53:45 51°13.486 2°51.437 60.1 0.8 248 9.4
2008-02-11 09:53:50 51°13.486 2°51.435 60.2 0.8 247 9.4
2008-02-11 09:53:55 51°13.485 2°51.434 60.2 0.8 247 9.4
2008-02-11 09:54:00 51°13.485 2°51.432 60.2 0.9 251 9.4
2008-02-11 09:54:05 51°13.485 2°51.43 60.3 0.8 249 9.4
2008-02-11 09:54:10 51°13.484 2°51.429 60.4 0.9 248 9.3
2008-02-11 09:54:15 51°13.484 2°51.427 60.4 0.8 247 9.4
2008-02-11 09:54:20 51°13.483 2°51.425 60.4 0.9 248 9.4
2008-02-11 09:54:25 51°13.483 2°51.423 60.3 0.9 250 9.4
2008-02-11 09:54:30 51°13.482 2°51.421 60.4 0.9 248 9.4
2008-02-11 09:54:35 51°13.482 2°51.42 60.3 0.9 252 9.4
2008-02-11 09:54:40 51°13.481 2°51.418 60.1 0.9 248 9.4
2008-02-11 09:54:45 51°13.481 2°51.416 60.2 0.9 253 9.4
2008-02-11 09:54:50 51°13.481 2°51.414 60.2 0.9 248 9.4
2008-02-11 09:54:55 51°13.48 2°51.412 60.1 0.9 249 9.4
2008-02-11 09:55:00 51°13.48 2°51.41 60.1 0.9 247 9.5
2008-02-11 09:55:05 51°13.479 2°51.408 60.1 0.9 254 9.4
2008-02-11 09:55:10 51°13.479 2°51.406 60.1 0.9 249 9.4
2008-02-11 09:55:15 51°13.478 2°51.404 60.1 0.9 252 9.4
2008-02-11 09:55:20 51°13.478 2°51.402 60.3 1 248 9.4
2008-02-11 09:55:25 51°13.477 2°51.4 60.3 1 254 9.4
2008-02-11 09:55:30 51°13.477 2°51.398 60.3 1 247 9.4
2008-02-11 09:55:35 51°13.476 2°51.396 60.3 1 254 9.4
2008-02-11 09:55:40 51°13.476 2°51.394 60.3 1 248 9.4
2008-02-11 09:55:45 51°13.476 2°51.392 60.3 1 253 9.4
2008-02-11 09:55:50 51°13.475 2°51.39 60.3 1 248 9.4
2008-02-11 09:55:55 51°13.475 2°51.388 60.2 1 252 9.4
2008-02-11 09:56:00 51°13.474 2°51.386 60.2 1 244 9.4
2008-02-11 09:56:05 51°13.474 2°51.384 60.1 1 254 9.4
2008-02-11 09:56:10 51°13.473 2°51.382 60.1 1 247 9.4
2008-02-11 09:56:15 51°13.473 2°51.38 60.1 1.1 252 9.4
2008-02-11 09:56:20 51°13.472 2°51.378 60.1 1 246 9.4
2008-02-11 09:56:25 51°13.472 2°51.375 60.1 1 251 9.4
2008-02-11 09:56:30 51°13.471 2°51.373 60.2 1.1 245 9.5
2008-02-11 09:56:35 51°13.471 2°51.371 60.3 1 252 9.4
2008-02-11 09:56:40 51°13.47 2°51.369 60.5 1 246 9.4
2008-02-11 09:56:45 51°13.47 2°51.367 60.6 1.1 251 9.4
2008-02-11 09:56:50 51°13.469 2°51.365 60.8 1 247 9.5
2008-02-11 09:56:55 51°13.468 2°51.363 60.9 1.1 252 9.5
2008-02-11 09:57:00 51°13.468 2°51.361 61.1 1.1 245 9.5
2008-02-11 09:57:05 51°13.467 2°51.358 61.3 1.1 251 9.5
2008-02-11 09:57:10 51°13.467 2°51.356 61.5 1.1 246 9.5
2008-02-11 09:57:15 51°13.467 2°51.354 61.6 1.1 252 9.5
2008-02-11 09:57:20 51°13.466 2°51.352 61.7 1.1 246 9.5
2008-02-11 09:57:25 51°13.465 2°51.35 61.9 1.1 250 9.4
2008-02-11 09:57:30 51°13.465 2°51.347 62.1 1.1 248 9.5
2008-02-11 09:57:35 51°13.464 2°51.345 62.2 1.1 251 9.5
2008-02-11 09:57:40 51°13.464 2°51.343 62.3 1.1 246 9.4
2008-02-11 09:57:45 51°13.463 2°51.341 62.4 1.1 249 9.5
2008-02-11 09:57:50 51°13.462 2°51.338 62.5 1.1 250 9.5
2008-02-11 09:57:55 51°13.462 2°51.336 62.6 1.1 249 9.5
2008-02-11 09:58:00 51°13.461 2°51.334 62.8 1.1 251 9.4
2008-02-11 09:58:05 51°13.461 2°51.331 62.8 1.1 250 9.5
2008-02-11 09:58:10 51°13.46 2°51.329 62.9 1.1 249 9.4
2008-02-11 09:58:15 51°13.46 2°51.327 63 1.1 248 9.5
2008-02-11 09:58:20 51°13.459 2°51.324 63 1.1 248 9.5
2008-02-11 09:58:25 51°13.459 2°51.322 63 1.1 248 9.4
2008-02-11 09:58:30 51°13.458 2°51.32 63.1 1.1 252 9.5
2008-02-11 09:58:35 51°13.458 2°51.317 63.2 1.1 250 9.5
2008-02-11 09:58:40 51°13.457 2°51.315 63.2 1.1 248 9.5
2008-02-11 09:58:45 51°13.456 2°51.312 63.3 1.1 250 9.5
2008-02-11 09:58:50 51°13.456 2°51.31 63.4 1.2 251 9.6
2008-02-11 09:58:55 51°13.455 2°51.308 63.4 1.2 249 9.5
2008-02-11 09:59:00 51°13.455 2°51.305 63.5 1.1 250 9.5
2008-02-11 09:59:05 51°13.455 2°51.303 63.6 1.2 248 9.5
2008-02-11 09:59:10 51°13.454 2°51.3 63.7 1.1 251 9.5
2008-02-11 09:59:15 51°13.454 2°51.298 63.8 1.1 251 9.5
2008-02-11 09:59:20 51°13.453 2°51.296 63.8 1.2 248 9.5
2008-02-11 09:59:25 51°13.452 2°51.293 63.8 1.1 250 9.5
2008-02-11 09:59:30 51°13.452 2°51.291 63.8 1 250 9.5
2008-02-11 09:59:35 51°13.452 2°51.289 63.3 0.9 250 9.5
2008-02-11 09:59:40 51°13.451 2°51.288 62.5 0.8 254 9.5
2008-02-11 09:59:45 51°13.451 2°51.287 61.3 0.5 255 9.5
2008-02-11 09:59:50 51°13.451 2°51.286 60.3 0.2 304 9.5
2008-02-11 09:59:55 51°13.452 2°51.286 60.1 0.3 43 9.5
2008-02-11 10:00:00 51°13.452 2°51.287 60.3 0.6 49 9.6
2008-02-11 10:00:05 51°13.453 2°51.289 61 0.9 55 9.5
2008-02-11 10:00:10 51°13.454 2°51.291 61.6 1.2 57 9.5
2008-02-11 10:00:15 51°13.454 2°51.294 62.2 1.5 61 9.5
2008-02-11 10:00:20 51°13.455 2°51.297 62.6 1.7 63 9.5
2008-02-11 10:00:25 51°13.456 2°51.301 62.8 1.9 63 9.5
2008-02-11 10:00:30 51°13.458 2°51.306 63.1 2.3 65 9.5
2008-02-11 10:00:35 51°13.46 2°51.312 63.7 2.9 65 9.5
2008-02-11 10:00:40 51°13.462 2°51.319 64.7 3.4 66 9.5
2008-02-11 10:00:45 51°13.464 2°51.327 65.9 4 70 9.5
2008-02-11 10:00:50 51°13.466 2°51.336 67.2 4.4 68 9.5
2008-02-11 10:00:55 51°13.468 2°51.346 67.8 4.7 69 9.4
2008-02-11 10:01:00 51°13.471 2°51.356 67.8 5.1 67 9.5
2008-02-11 10:01:05 51°13.473 2°51.367 67 5.4 67 9.4
2008-02-11 10:01:10 51°13.477 2°51.378 66.1 5.7 66 9.4
2008-02-11 10:01:15 51°13.48 2°51.39 65.7 5.9 67 9.4
2008-02-11 10:01:20 51°13.484 2°51.402 65.2 5.9 66 9.5
2008-02-11 10:01:25 51°13.487 2°51.413 65 5.5 65 9.4
2008-02-11 10:01:30 51°13.49 2°51.424 64.7 5.1 65 9.4
2008-02-11 10:01:35 51°13.493 2°51.433 64.5 4.8 65 9.4
2008-02-11 10:01:40 51°13.495 2°51.442 64.2 4.6 64 9.4
2008-02-11 10:01:45 51°13.498 2°51.451 63.8 4.2 63 9.4
2008-02-11 10:01:50 51°13.5 2°51.459 63.1 4 62 9.4
2008-02-11 10:01:55 51°13.503 2°51.466 62.4 3.8 62 9.4
2008-02-11 10:02:00 51°13.505 2°51.472 61.2 3.5 59 9.4
2008-02-11 10:02:05 51°13.508 2°51.479 59.8 3.3 58 9.4
2008-02-11 10:02:11 51°13.51 2°51.485 58.1 3 56 9.4
2008-02-11 10:02:15 51°13.512 2°51.489 56.9 2.9 56 9.4
2008-02-11 10:02:20 51°13.514 2°51.494 55.9 2.6 54 9.4
2008-02-11 10:02:25 51°13.516 2°51.498 54.2 2.3 53 9.4
2008-02-11 10:02:30 51°13.518 2°51.502 53.8 2 57 9.4
2008-02-11 10:02:35 51°13.519 2°51.505 56.3 1.7 63 9.4
2008-02-11 10:02:40 51°13.519 2°51.508 59.8 1.4 64 9.4
2008-02-11 10:02:45 51°13.52 2°51.51 62.7 1.2 71 9.4
2008-02-11 10:02:50 51°13.521 2°51.513 66.4 1 77 9.4
2008-02-11 10:02:55 51°13.521 2°51.515 69.8 1 82 9.4
2008-02-11 10:03:00 51°13.521 2°51.517 73.2 0.9 86 9.4
2008-02-11 10:03:05 51°13.521 2°51.519 74.8 0.9 90 9.4
2008-02-11 10:03:10 51°13.521 2°51.521 76.6 0.8 98 9.4
2008-02-11 10:03:15 51°13.52 2°51.523 77.9 0.8 97 9.4
2008-02-11 10:03:20 51°13.52 2°51.524 79.2 0.8 97 9.4
2008-02-11 10:03:25 51°13.52 2°51.526 79.8 0.7 105 9.4
2008-02-11 10:03:30 51°13.519 2°51.527 80.5 0.7 109 9.4
2008-02-11 10:03:35 51°13.519 2°51.529 81 0.6 110 9.5
2008-02-11 10:03:40 51°13.519 2°51.53 81.4 0.6 112 9.5
2008-02-11 10:03:45 51°13.518 2°51.531 81.8 0.6 122 9.4
2008-02-11 10:03:50 51°13.518 2°51.532 82 0.6 121 9.4
2008-02-11 10:03:55 51°13.518 2°51.533 82.2 0.6 123 9.4
2008-02-11 10:04:00 51°13.517 2°51.534 82.6 0.5 126 9.4
2008-02-11 10:04:05 51°13.517 2°51.535 82.7 0.5 131 9.4
2008-02-11 10:04:10 51°13.516 2°51.536 82.9 0.5 133 9.4
2008-02-11 10:04:15 51°13.516 2°51.537 83.1 0.4 135 9.5
2008-02-11 10:04:20 51°13.515 2°51.537 83.3 0.4 142 9.4
2008-02-11 10:04:25 51°13.515 2°51.538 83.4 0.4 145 9.4
2008-02-11 10:04:31 51°13.515 2°51.539 83.4 0.4 144 9.4
2008-02-11 10:04:35 51°13.514 2°51.539 83.4 0.4 140 9.4
2008-02-11 10:04:40 51°13.514 2°51.539 83.6 0.4 150 9.4
2008-02-11 10:04:45 51°13.513 2°51.539 83.6 0.4 163 9.4
2008-02-11 10:04:51 51°13.512 2°51.54 83.6 0.4 170 9.4
2008-02-11 10:04:55 51°13.512 2°51.54 83.8 0.4 172 9.4
2008-02-11 10:05:00 51°13.512 2°51.54 83.9 0.4 171 9.4
2008-02-11 10:05:05 51°13.511 2°51.54 83.9 0.4 176 9.4
2008-02-11 10:05:10 51°13.51 2°51.54 84.1 0.4 180 9.4
2008-02-11 10:05:15 51°13.51 2°51.54 84.1 0.4 185 9.4
2008-02-11 10:05:20 51°13.509 2°51.54 84.2 0.5 188 9.4
2008-02-11 10:05:25 51°13.508 2°51.54 84.2 0.5 185 9.4
2008-02-11 10:05:30 51°13.508 2°51.539 84.3 0.5 193 9.4
2008-02-11 10:05:35 51°13.507 2°51.539 84.4 0.5 198 9.4
2008-02-11 10:05:40 51°13.506 2°51.539 84.5 0.4 197 9.4
2008-02-11 10:05:45 51°13.506 2°51.539 84.5 0.5 198 9.4
2008-02-11 10:05:50 51°13.505 2°51.538 84.5 0.4 204 9.4
2008-02-11 10:05:55 51°13.504 2°51.538 84.5 0.5 204 9.4
2008-02-11 10:06:00 51°13.504 2°51.537 84.3 0.5 209 9.4
2008-02-11 10:06:05 51°13.503 2°51.537 84.2 0.5 207 9.4
2008-02-11 10:06:10 51°13.503 2°51.536 84.1 0.5 209 9.4
2008-02-11 10:06:15 51°13.502 2°51.535 84 0.5 211 9.4
2008-02-11 10:06:20 51°13.501 2°51.535 83.9 0.6 216 9.4
2008-02-11 10:06:25 51°13.501 2°51.534 83.6 0.6 212 9.4
2008-02-11 10:06:30 51°13.5 2°51.533 83.5 0.5 224 9.4
2008-02-11 10:06:35 51°13.499 2°51.532 83.4 0.6 219 9.5
2008-02-11 10:06:40 51°13.499 2°51.531 83.1 0.6 223 9.5
2008-02-11 10:06:45 51°13.498 2°51.531 82.9 0.7 218 9.4
2008-02-11 10:06:51 51°13.497 2°51.529 82.8 0.6 230 9.4
2008-02-11 10:06:55 51°13.497 2°51.529 82.7 0.7 221 9.4
2008-02-11 10:07:00 51°13.496 2°51.528 82.6 0.6 225 9.4
2008-02-11 10:07:05 51°13.495 2°51.527 82.5 0.7 224 9.4
2008-02-11 10:07:10 51°13.495 2°51.525 82.4 0.6 231 9.4
2008-02-11 10:07:15 51°13.494 2°51.524 82.3 0.7 229 9.4
2008-02-11 10:07:20 51°13.494 2°51.523 82.1 0.7 230 9.4
2008-02-11 10:07:25 51°13.493 2°51.522 82 0.7 230 9.4
2008-02-11 10:07:30 51°13.492 2°51.521 82 0.7 232 9.5
2008-02-11 10:07:35 51°13.491 2°51.519 81.9 0.8 231 9.4
2008-02-11 10:07:40 51°13.491 2°51.518 81.9 0.8 228 9.5
2008-02-11 10:07:45 51°13.49 2°51.517 81.8 0.8 231 9.4
2008-02-11 10:07:50 51°13.49 2°51.515 81.6 0.8 234 9.4
2008-02-11 10:07:55 51°13.489 2°51.514 81.4 0.8 235 9.4
2008-02-11 10:08:00 51°13.488 2°51.513 81.2 0.8 231 9.4
2008-02-11 10:08:05 51°13.488 2°51.511 81.2 0.8 239 9.4
2008-02-11 10:08:10 51°13.487 2°51.51 81 0.8 235 9.4
2008-02-11 10:08:15 51°13.487 2°51.508 80.8 0.8 238 9.4
2008-02-11 10:08:20 51°13.486 2°51.507 80.6 0.8 236 9.5
2008-02-11 10:08:25 51°13.485 2°51.505 80.5 0.9 236 9.4
2008-02-11 10:08:30 51°13.485 2°51.504 80.4 0.9 237 9.5
2008-02-11 10:08:35 51°13.484 2°51.502 80.1 0.9 235 9.4
2008-02-11 10:08:40 51°13.483 2°51.5 80 0.9 240 9.4
2008-02-11 10:08:45 51°13.483 2°51.498 79.8 0.9 239 9.4
2008-02-11 10:08:50 51°13.482 2°51.497 79.7 0.9 240 9.4
2008-02-11 10:08:55 51°13.482 2°51.495 79.5 0.9 240 9.5
2008-02-11 10:09:00 51°13.481 2°51.493 79.3 0.9 241 9.5
2008-02-11 10:09:05 51°13.48 2°51.491 79.2 0.9 241 9.4
2008-02-11 10:09:11 51°13.48 2°51.489 79 0.9 241 9.4
2008-02-11 10:09:15 51°13.479 2°51.488 79 0.9 242 9.4
2008-02-11 10:09:20 51°13.479 2°51.486 78.9 0.9 244 9.4
2008-02-11 10:09:25 51°13.478 2°51.484 78.7 0.9 242 9.4
2008-02-11 10:09:30 51°13.477 2°51.482 78.6 1 240 9.4
2008-02-11 10:09:35 51°13.477 2°51.48 78.5 1 244 9.5
2008-02-11 10:09:40 51°13.476 2°51.479 78.3 1 243 9.4
2008-02-11 10:09:45 51°13.475 2°51.477 78.3 1 241 9.5
2008-02-11 10:09:50 51°13.475 2°51.475 78.3 0.9 239 9.5
2008-02-11 10:09:55 51°13.474 2°51.473 78.3 0.8 238 9.5
2008-02-11 10:10:00 51°13.473 2°51.472 77.6 0.7 237 9.5
2008-02-11 10:10:05 51°13.473 2°51.471 76.4 0.6 230 9.5
2008-02-11 10:10:10 51°13.473 2°51.471 74.8 0.2 215 9.5
2008-02-11 10:10:15 51°13.473 2°51.471 72.6 0.1 128 9.5
2008-02-11 10:10:20 51°13.473 2°51.472 69.1 0.4 68 9.5
2008-02-11 10:10:25 51°13.473 2°51.473 65 0.9 60 9.5
2008-02-11 10:10:30 51°13.475 2°51.476 60.3 1.3 50 9.5
2008-02-11 10:10:35 51°13.476 2°51.478 55.8 1.6 52 9.4
2008-02-11 10:10:40 51°13.478 2°51.482 52.8 2.2 50 9.5
2008-02-11 10:10:45 51°13.48 2°51.487 51.8 2.9 53 9.5
2008-02-11 10:10:50 51°13.483 2°51.494 53.2 3.7 57 9.5
2008-02-11 10:10:55 51°13.486 2°51.502 56.1 4.3 58 9.4
2008-02-11 10:11:00 51°13.49 2°51.511 57.9 4.9 60 9.4
2008-02-11 10:11:05 51°13.494 2°51.522 58.8 5.5 60 9.4
2008-02-11 10:11:10 51°13.498 2°51.534 59.8 6.2 62 9.4
2008-02-11 10:11:15 51°13.502 2°51.547 60.7 6.7 62 9.4
2008-02-11 10:11:20 51°13.507 2°51.561 60.9 7.3 63 9.4
2008-02-11 10:11:25 51°13.512 2°51.576 61.3 7.8 62 9.4
2008-02-11 10:11:30 51°13.518 2°51.593 61.5 8.4 62 9.4
2008-02-11 10:11:35 51°13.523 2°51.61 61.5 8.8 62 9.3
2008-02-11 10:11:40 51°13.53 2°51.627 61.5 9.2 60 9.3
2008-02-11 10:11:45 51°13.536 2°51.645 60.2 9.4 60 9.3
2008-02-11 10:11:50 51°13.543 2°51.664 59.8 9.7 60 9.2
2008-02-11 10:11:55 51°13.55 2°51.683 59.4 9.9 59 9.2
2008-02-11 10:12:00 51°13.557 2°51.702 59.3 10.1 61 9.2
2008-02-11 10:12:05 51°13.564 2°51.722 59.9 10.3 60 9.2
2008-02-11 10:12:10 51°13.571 2°51.742 60.1 10.5 60 9.2
2008-02-11 10:12:15 51°13.578 2°51.762 60.2 10.6 60 9.2
2008-02-11 10:12:20 51°13.586 2°51.783 60.3 10.7 61 9.1
2008-02-11 10:12:25 51°13.593 2°51.803 60.3 10.8 60 9.1
2008-02-11 10:12:30 51°13.601 2°51.824 60.3 10.8 60 9.1
2008-02-11 10:12:35 51°13.608 2°51.845 60.2 10.8 60 9.1
2008-02-11 10:12:40 51°13.616 2°51.866 60.1 10.9 59 9.1
2008-02-11 10:12:45 51°13.624 2°51.887 59.6 10.9 59 9.1
2008-02-11 10:12:50 51°13.632 2°51.907 58.8 10.9 58 9.1
2008-02-11 10:12:55 51°13.64 2°51.928 58.3 10.9 58 9.1
2008-02-11 10:13:00 51°13.648 2°51.948 58.1 10.9 58 9.1
2008-02-11 10:13:05 51°13.656 2°51.969 58.1 10.9 59 9.1
2008-02-11 10:13:10 51°13.664 2°51.989 58.1 10.9 59 9.1
2008-02-11 10:13:15 51°13.672 2°52.01 58.5 11 59 9.1
2008-02-11 10:13:20 51°13.68 2°52.031 58.7 11 60 9.1
2008-02-11 10:13:25 51°13.687 2°52.052 59.3 11 61 9
2008-02-11 10:13:30 51°13.695 2°52.074 60.1 11 61 9
2008-02-11 10:13:35 51°13.702 2°52.095 60.5 11 61 9
2008-02-11 10:13:40 51°13.709 2°52.117 60.7 11.1 61 9
2008-02-11 10:13:45 51°13.717 2°52.138 60.8 11 61 9
2008-02-11 10:13:50 51°13.724 2°52.159 60.8 11 61 9
2008-02-11 10:13:55 51°13.731 2°52.181 60.8 11.1 61 9
2008-02-11 10:14:00 51°13.739 2°52.202 60.8 11.1 60 9
2008-02-11 10:14:05 51°13.747 2°52.223 60.1 11 59 8.9
2008-02-11 10:14:10 51°13.755 2°52.244 59.3 11 59 8.9
2008-02-11 10:14:15 51°13.763 2°52.264 58.7 11 58 8.9
2008-02-11 10:14:20 51°13.771 2°52.285 58 11.1 58 9
2008-02-11 10:14:25 51°13.78 2°52.306 57.9 11.1 58 8.9
2008-02-11 10:14:30 51°13.787 2°52.327 57.8 11.1 59 8.9
2008-02-11 10:14:35 51°13.795 2°52.348 58.2 11.1 59 8.9
2008-02-11 10:14:40 51°13.803 2°52.369 58.7 11.1 59 8.9
2008-02-11 10:14:45 51°13.811 2°52.39 59.2 11.1 61 8.9
2008-02-11 10:14:50 51°13.818 2°52.412 59.8 11.1 61 8.9
2008-02-11 10:14:55 51°13.826 2°52.433 60.4 11.1 61 8.9
2008-02-11 10:15:00 51°13.833 2°52.455 60.6 11.1 61 8.8
2008-02-11 10:15:05 51°13.84 2°52.476 60.5 11.1 61 8.8
2008-02-11 10:15:10 51°13.848 2°52.498 60.4 11.1 62 8.8
2008-02-11 10:15:15 51°13.855 2°52.519 60.8 11.1 61 8.8
2008-02-11 10:15:20 51°13.863 2°52.541 60.8 11.1 61 8.8
2008-02-11 10:15:25 51°13.87 2°52.563 60.5 11.1 61 8.8
2008-02-11 10:15:30 51°13.878 2°52.584 60.4 11.1 61 8.8
2008-02-11 10:15:35 51°13.885 2°52.606 60.6 11.2 61 8.8
2008-02-11 10:15:40 51°13.893 2°52.627 60.5 11.2 60 8.8
2008-02-11 10:15:45 51°13.901 2°52.649 60.1 11.1 60 8.8
2008-02-11 10:15:50 51°13.908 2°52.67 59.9 11.1 60 8.8
2008-02-11 10:15:55 51°13.916 2°52.692 59.9 11.1 61 8.7
2008-02-11 10:16:00 51°13.924 2°52.713 59.9 11.2 61 8.7
2008-02-11 10:16:05 51°13.931 2°52.735 60.1 11.1 61 8.7
2008-02-11 10:16:10 51°13.938 2°52.756 60.2 11.1 61 8.7
2008-02-11 10:16:15 51°13.946 2°52.778 60.4 11.1 61 8.7
2008-02-11 10:16:20 51°13.953 2°52.8 60.4 11.1 61 8.7
2008-02-11 10:16:25 51°13.961 2°52.821 60.5 11.1 61 8.7
2008-02-11 10:16:30 51°13.968 2°52.843 60.6 11.1 61 8.7
2008-02-11 10:16:35 51°13.976 2°52.864 60.5 11.1 60 8.7
2008-02-11 10:16:40 51°13.983 2°52.885 60.1 11.1 60 8.7
2008-02-11 10:16:45 51°13.992 2°52.906 59.4 11.1 58 8.7
2008-02-11 10:16:50 51°14 2°52.927 58.9 11.1 57 8.7
2008-02-11 10:16:55 51°14.01 2°52.946 57.2 11.2 53 8.6
2008-02-11 10:17:00 51°14.018 2°52.967 55.1 11.1 55 8.6
2008-02-11 10:17:05 51°14.028 2°52.986 54.5 11.2 53 8.6
2008-02-11 10:17:10 51°14.037 2°53.006 53.8 11.2 53 8.6
2008-02-11 10:17:15 51°14.047 2°53.025 53 11.2 52 8.6
2008-02-11 10:17:20 51°14.056 2°53.045 52.5 11.2 52 8.6
2008-02-11 10:17:25 51°14.066 2°53.064 52.2 11.2 52 8.6
2008-02-11 10:17:30 51°14.075 2°53.084 52.3 11.3 53 8.6
2008-02-11 10:17:35 51°14.084 2°53.104 52.6 11.3 53 8.6
2008-02-11 10:17:40 51°14.094 2°53.124 52.9 11.3 53 8.6
2008-02-11 10:17:45 51°14.103 2°53.144 52.9 11.3 53 8.6
2008-02-11 10:17:50 51°14.113 2°53.164 52.9 11.3 53 8.5
2008-02-11 10:17:55 51°14.122 2°53.184 52.9 11.3 53 8.5
2008-02-11 10:18:00 51°14.132 2°53.204 52.9 11.3 53 8.5
2008-02-11 10:18:05 51°14.141 2°53.223 52.9 11.3 53 8.5
2008-02-11 10:18:10 51°14.15 2°53.243 52.9 11.3 53 8.5
2008-02-11 10:18:15 51°14.16 2°53.263 53 11.3 53 8.5
2008-02-11 10:18:20 51°14.169 2°53.284 53.3 11.3 55 8.4
2008-02-11 10:18:25 51°14.178 2°53.304 54.2 11.3 54 8.4
2008-02-11 10:18:30 51°14.187 2°53.325 54.7 11.3 56 8.3
2008-02-11 10:18:35 51°14.196 2°53.346 55.5 11.4 55 8.3
2008-02-11 10:18:40 51°14.204 2°53.367 55.7 11.4 56 8.3
2008-02-11 10:18:45 51°14.213 2°53.388 55.8 11.4 56 8.3
2008-02-11 10:18:50 51°14.222 2°53.409 55.8 11.4 56 8.3
2008-02-11 10:18:55 51°14.231 2°53.429 56 11.4 56 8.2
2008-02-11 10:19:00 51°14.239 2°53.45 56.1 11.3 56 8.2
2008-02-11 10:19:05 51°14.248 2°53.471 55.9 11.4 55 8.2
2008-02-11 10:19:10 51°14.257 2°53.492 55.7 11.4 56 8.2
2008-02-11 10:19:15 51°14.266 2°53.512 55.5 11.4 55 8.2
2008-02-11 10:19:20 51°14.275 2°53.533 55.2 11.4 55 8.1
2008-02-11 10:19:25 51°14.284 2°53.554 55.1 11.4 55 8.1
2008-02-11 10:19:30 51°14.293 2°53.575 55.1 11.4 56 8.1
2008-02-11 10:19:35 51°14.302 2°53.595 55.5 11.4 55 8.1
2008-02-11 10:19:40 51°14.311 2°53.616 55.6 11.3 54 8.1
2008-02-11 10:19:45 51°14.321 2°53.635 55.5 11.3 51 8.1
2008-02-11 10:19:50 51°14.332 2°53.653 53.2 11.3 45 8.1
2008-02-11 10:19:55 51°14.343 2°53.671 47.8 11.3 45 8.1
2008-02-11 10:20:00 51°14.354 2°53.69 45.3 11.4 49 8.1
2008-02-11 10:20:05 51°14.364 2°53.708 47.3 11.4 47 8.1
2008-02-11 10:20:10 51°14.375 2°53.727 48.1 11.3 48 8.2
2008-02-11 10:20:15 51°14.386 2°53.743 48.2 11.4 42 8.2
2008-02-11 10:20:20 51°14.398 2°53.761 45.5 11.4 44 8.2
2008-02-11 10:20:25 51°14.41 2°53.777 44.5 11.4 39 8.2
2008-02-11 10:20:30 51°14.422 2°53.793 43.4 11.4 40 8.2
2008-02-11 10:20:35 51°14.436 2°53.807 41.3 11.4 32 8.2
2008-02-11 10:20:40 51°14.449 2°53.82 36.5 11.4 31 8.2
2008-02-11 10:20:45 51°14.463 2°53.832 33.4 11.5 29 8.3
2008-02-11 10:20:50 51°14.477 2°53.843 31.6 11.5 27 8.3
2008-02-11 10:20:55 51°14.492 2°53.855 29.7 11.5 26 8.3
2008-02-11 10:21:00 51°14.506 2°53.866 28.9 11.6 25 8.4
2008-02-11 10:21:05 51°14.521 2°53.876 27.8 11.5 24 8.4
2008-02-11 10:21:10 51°14.535 2°53.886 27.4 11.5 23 8.4
2008-02-11 10:21:15 51°14.551 2°53.893 25.1 11.6 16 8.5
2008-02-11 10:21:20 51°14.567 2°53.9 21.2 11.6 15 8.5
2008-02-11 10:21:25 51°14.582 2°53.907 18.8 11.7 16 8.8
2008-02-11 10:21:30 51°14.598 2°53.913 18.2 11.8 13 9.2
2008-02-11 10:21:35 51°14.614 2°53.919 16.8 11.8 15 9.3
2008-02-11 10:21:40 51°14.63 2°53.925 16.6 11.9 13 9.5
2008-02-11 10:21:45 51°14.646 2°53.931 15.9 11.9 14 9.3
2008-02-11 10:21:50 51°14.662 2°53.937 15.9 11.9 13 9.5
2008-02-11 10:21:55 51°14.678 2°53.944 15.9 11.9 14 9.3
2008-02-11 10:22:00 51°14.694 2°53.95 16.4 11.9 14 9.3
2008-02-11 10:22:05 51°14.71 2°53.956 16.6 11.9 13 9.2
2008-02-11 10:22:10 51°14.727 2°53.961 15.6 11.9 11 9.1
2008-02-11 10:22:15 51°14.743 2°53.966 14.5 11.8 12 8.9
2008-02-11 10:22:20 51°14.759 2°53.971 14.1 11.8 11 8.7
2008-02-11 10:22:25 51°14.775 2°53.976 13.4 11.7 11 8.3
2008-02-11 10:22:30 51°14.791 2°53.981 13.3 11.7 10 8.2
2008-02-11 10:22:35 51°14.806 2°53.987 13.2 11.6 12 8
2008-02-11 10:22:40 51°14.822 2°53.991 13.8 11.6 11 7.9
2008-02-11 10:22:45 51°14.838 2°53.997 14 11.6 13 8
2008-02-11 10:22:50 51°14.853 2°54.003 14.6 11.6 13 7.9
2008-02-11 10:22:55 51°14.869 2°54.009 15.4 11.6 14 8
2008-02-11 10:23:00 51°14.885 2°54.016 16.2 11.6 15 8
2008-02-11 10:23:05 51°14.9 2°54.022 16.9 11.7 14 8
2008-02-11 10:23:10 51°14.916 2°54.029 17.1 11.6 14 7.8
2008-02-11 10:23:15 51°14.932 2°54.035 17.2 11.6 13 7.7
2008-02-11 10:23:20 51°14.948 2°54.038 16.2 11.6 8 8.1
2008-02-11 10:23:25 51°14.964 2°54.042 12.8 11.6 10 7.8
2008-02-11 10:23:30 51°14.98 2°54.044 11.8 11.6 5 7.6
2008-02-11 10:23:35 51°14.996 2°54.047 9.4 11.6 6 7.6
2008-02-11 10:23:40 51°15.012 2°54.049 8.5 11.6 4 7.6
2008-02-11 10:23:45 51°15.028 2°54.051 8 11.5 5 7.7
2008-02-11 10:23:50 51°15.044 2°54.053 7.8 11.6 4 7.7
2008-02-11 10:23:55 51°15.06 2°54.055 7.8 11.5 5 7.6
2008-02-11 10:24:00 51°15.075 2°54.057 7.8 11.5 4 7.4
2008-02-11 10:24:05 51°15.092 2°54.059 7.6 11.5 5 5.5
2008-02-11 10:24:10 51°15.108 2°54.061 7.4 11.5 5 7.5
2008-02-11 10:24:15 51°15.123 2°54.064 7.6 11.5 5 7.6
2008-02-11 10:24:20 51°15.139 2°54.066 8 11.6 4 7.6
2008-02-11 10:24:25 51°15.156 2°54.068 8 11.6 5 7.5
2008-02-11 10:24:30 51°15.172 2°54.071 8.2 11.6 5 7.5
2008-02-11 10:24:35 51°15.188 2°54.073 8.6 11.6 5 7.5
2008-02-11 10:24:40 51°15.203 2°54.075 8.7 11.6 5 7.6
2008-02-11 10:24:45 51°15.219 2°54.077 8.6 11.6 5 7.6
2008-02-11 10:24:50 51°15.235 2°54.08 8.4 11.6 5 7.7
2008-02-11 10:24:55 51°15.252 2°54.082 8.4 11.6 5 7.7
2008-02-11 10:25:00 51°15.268 2°54.084 8.6 11.6 6 7.7
2008-02-11 10:25:05 51°15.284 2°54.087 8.7 11.6 5 7.7
2008-02-11 10:25:10 51°15.3 2°54.09 8.8 11.6 8 7.7
2008-02-11 10:25:15 51°15.316 2°54.093 9.9 11.6 6 7.8
2008-02-11 10:25:20 51°15.332 2°54.098 10.2 11.6 10 7.8
2008-02-11 10:25:25 51°15.348 2°54.101 11.7 11.6 8 7.9
2008-02-11 10:25:30 51°15.363 2°54.107 12.4 11.6 13 7.9
2008-02-11 10:25:35 51°15.379 2°54.112 14.3 11.6 12 7.9
2008-02-11 10:25:40 51°15.394 2°54.118 15.1 11.6 14 8
2008-02-11 10:25:45 51°15.41 2°54.125 16.6 11.6 16 8
2008-02-11 10:25:50 51°15.425 2°54.132 18.5 11.6 17 8.1
2008-02-11 10:25:55 51°15.44 2°54.14 19.7 11.6 18 8.1
2008-02-11 10:26:00 51°15.455 2°54.149 20.6 11.5 19 8.2
2008-02-11 10:26:05 51°15.471 2°54.157 21.6 11.5 19 8.2
2008-02-11 10:26:10 51°15.486 2°54.166 22.2 11.5 20 8.2
2008-02-11 10:26:15 51°15.501 2°54.174 22.7 11.5 19 8.2
2008-02-11 10:26:20 51°15.516 2°54.183 22.7 11.5 20 8.4
2008-02-11 10:26:25 51°15.531 2°54.192 22.7 11.5 21 8.4
2008-02-11 10:26:30 51°15.545 2°54.201 23.2 11.5 21 8.4
2008-02-11 10:26:35 51°15.56 2°54.21 23.9 11.5 22 8.5
2008-02-11 10:26:40 51°15.575 2°54.22 24.5 11.5 22 8.4
2008-02-11 10:26:45 51°15.59 2°54.229 24.6 11.5 22 8.4
2008-02-11 10:26:50 51°15.605 2°54.238 24.6 11.5 20 8.5
2008-02-11 10:26:55 51°15.62 2°54.247 24.1 11.5 21 8.5
2008-02-11 10:27:00 51°15.635 2°54.256 23.9 11.5 20 8.5
2008-02-11 10:27:05 51°15.649 2°54.265 23.6 11.5 21 8.5
2008-02-11 10:27:10 51°15.664 2°54.274 23.6 11.5 20 8.6
2008-02-11 10:27:15 51°15.679 2°54.283 23.6 11.5 21 8.6
2008-02-11 10:27:20 51°15.694 2°54.292 23.8 11.5 21 8.6
2008-02-11 10:27:25 51°15.709 2°54.301 24.2 11.4 21 8.7
2008-02-11 10:27:30 51°15.724 2°54.311 24.3 11.4 21 8.7
2008-02-11 10:27:35 51°15.738 2°54.32 24.3 11.5 21 8.8
2008-02-11 10:27:40 51°15.753 2°54.329 23.9 11.4 22 8.8
2008-02-11 10:27:45 51°15.768 2°54.338 24.6 11.4 22 8.8
2008-02-11 10:27:50 51°15.782 2°54.348 25 11.4 23 8.9
2008-02-11 10:27:55 51°15.797 2°54.358 25.3 11.4 23 8.9
2008-02-11 10:28:00 51°15.812 2°54.368 25.7 11.4 24 9
2008-02-11 10:28:05 51°15.826 2°54.379 26.4 11.4 25 9
2008-02-11 10:28:10 51°15.84 2°54.39 27.4 11.4 24 9.1
2008-02-11 10:28:15 51°15.855 2°54.4 27.4 11.4 25 9.1
2008-02-11 10:28:20 51°15.869 2°54.411 27.5 11.5 24 9.1
2008-02-11 10:28:25 51°15.883 2°54.421 27.3 11.5 24 9.1
2008-02-11 10:28:30 51°15.898 2°54.431 27 11.5 24 9.2
2008-02-11 10:28:35 51°15.912 2°54.442 26.8 11.4 24 9.1
2008-02-11 10:28:40 51°15.927 2°54.452 26.8 11.4 24 9.2
2008-02-11 10:28:45 51°15.942 2°54.463 26.8 11.5 24 9.2
2008-02-11 10:28:50 51°15.956 2°54.473 26.8 11.5 25 9.3
2008-02-11 10:28:55 51°15.97 2°54.484 27 11.5 25 9.3
2008-02-11 10:29:00 51°15.984 2°54.496 27.5 11.4 29 9.3
2008-02-11 10:29:05 51°15.998 2°54.51 30 11.5 31 9.3
2008-02-11 10:29:10 51°16.011 2°54.523 32.2 11.4 33 9.3
2008-02-11 10:29:15 51°16.024 2°54.539 34.7 11.4 37 9.5
2008-02-11 10:29:20 51°16.036 2°54.554 37.3 11.4 38 9.3
2008-02-11 10:29:25 51°16.048 2°54.572 39.2 11.4 43 9.3
2008-02-11 10:29:30 51°16.06 2°54.588 42 11.3 41 9.4
2008-02-11 10:29:35 51°16.071 2°54.606 42.9 11.4 46 9.4
2008-02-11 10:29:40 51°16.082 2°54.624 44.6 11.4 44 9.4
2008-02-11 10:29:45 51°16.092 2°54.642 45.4 11.4 48 9.4
2008-02-11 10:29:50 51°16.102 2°54.662 47.8 11.4 49 9.4
2008-02-11 10:29:55 51°16.113 2°54.681 49.1 11.4 49 9.4
2008-02-11 10:30:00 51°16.123 2°54.701 49.7 11.4 52 9.4
2008-02-11 10:30:05 51°16.133 2°54.72 50.7 11.4 50 9.4
2008-02-11 10:30:10 51°16.143 2°54.74 50.7 11.4 52 9.4
2008-02-11 10:30:15 51°16.153 2°54.759 51 11.4 51 9.4
2008-02-11 10:30:20 51°16.162 2°54.779 51.4 11.4 52 9.4
2008-02-11 10:30:25 51°16.172 2°54.799 51.7 11.4 51 9.4
2008-02-11 10:30:30 51°16.182 2°54.818 51.4 11.4 51 9.4
2008-02-11 10:30:35 51°16.192 2°54.838 51.1 11.4 51 9.4
2008-02-11 10:30:40 51°16.202 2°54.857 50.7 11.4 51 9.4
2008-02-11 10:30:45 51°16.212 2°54.876 50.5 11.4 49 9.3
2008-02-11 10:30:50 51°16.223 2°54.895 49.5 11.4 49 9.4
2008-02-11 10:30:55 51°16.233 2°54.914 48.9 11.3 48 9.3
2008-02-11 10:31:00 51°16.244 2°54.933 48.5 11.4 48 9.3
2008-02-11 10:31:05 51°16.254 2°54.951 48 11.3 48 9.2
2008-02-11 10:31:10 51°16.265 2°54.97 48 11.2 49 9.2
2008-02-11 10:31:15 51°16.274 2°54.988 48.5 10.7 49 9.2
2008-02-11 10:31:20 51°16.284 2°55.005 48.7 10.1 49 9.2
2008-02-11 10:31:25 51°16.292 2°55.021 48.7 9.3 50 9.2
2008-02-11 10:31:30 51°16.299 2°55.035 49.4 8.6 50 9.2
2008-02-11 10:31:35 51°16.306 2°55.049 50 7.8 52 9.3
2008-02-11 10:31:40 51°16.312 2°55.062 50.7 7.2 53 9.4
2008-02-11 10:31:45 51°16.317 2°55.074 51.7 6.7 54 9.4
2008-02-11 10:31:50 51°16.322 2°55.085 52.8 6.1 56 9.4
2008-02-11 10:31:55 51°16.326 2°55.095 54.2 5.6 58 9.4
2008-02-11 10:32:00 51°16.33 2°55.105 56 5.2 61 9.4
2008-02-11 10:32:05 51°16.333 2°55.115 57.6 4.8 62 9.4
2008-02-11 10:32:10 51°16.335 2°55.123 59.6 4.3 64 9.4
2008-02-11 10:32:15 51°16.338 2°55.131 61.6 3.7 64 9.4
2008-02-11 10:32:20 51°16.34 2°55.137 61.2 3.2 59 9.4
2008-02-11 10:32:25 51°16.342 2°55.142 57.8 2.8 55 9.4
2008-02-11 10:32:30 51°16.344 2°55.146 53.2 2.4 49 9.4
2008-02-11 10:32:35 51°16.346 2°55.149 48.2 2.1 42 9.4
2008-02-11 10:32:40 51°16.348 2°55.151 43.1 1.8 37 9.4
2008-02-11 10:32:45 51°16.35 2°55.153 38.4 1.7 29 9.5
2008-02-11 10:32:50 51°16.353 2°55.155 34.3 1.6 27 9.4
2008-02-11 10:32:55 51°16.355 2°55.156 31.5 1.6 21 9.4
2008-02-11 10:33:00 51°16.356 2°55.157 29.3 1.5 20 9.4
2008-02-11 10:33:05 51°16.358 2°55.158 27.9 1.4 16 9.4
2008-02-11 10:33:10 51°16.36 2°55.159 27.1 1.3 14 9.5
2008-02-11 10:33:15 51°16.362 2°55.16 26 1.3 12 9.4
2008-02-11 10:33:20 51°16.364 2°55.16 25.4 1.2 11 9.5
2008-02-11 10:33:25 51°16.365 2°55.16 25 1.2 6 9.5
2008-02-11 10:33:30 51°16.367 2°55.161 24.6 1.1 7 9.5
2008-02-11 10:33:35 51°16.368 2°55.161 24.1 1.1 4 9.4
2008-02-11 10:33:41 51°16.37 2°55.161 23.9 1 3 9.4
2008-02-11 10:33:45 51°16.371 2°55.161 23.9 1 2 9.4
2008-02-11 10:33:50 51°16.372 2°55.161 23.8 1 3 9.4
2008-02-11 10:33:55 51°16.374 2°55.161 23.7 0.9 358 9.5
2008-02-11 10:34:01 51°16.375 2°55.161 23.7 0.9 -999 9.5
2008-02-11 10:34:05 51°16.376 2°55.161 23.9 0.9 355 9.5
2008-02-11 10:34:10 51°16.377 2°55.161 24.1 0.8 -999 9.5
2008-02-11 10:34:15 51°16.378 2°55.161 24.3 0.8 354 9.4
2008-02-11 10:34:21 51°16.379 2°55.16 24.6 0.7 358 9.4
2008-02-11 10:34:25 51°16.38 2°55.16 24.8 0.7 355 9.5
2008-02-11 10:34:30 51°16.381 2°55.16 25.1 0.7 355 9.4
2008-02-11 10:34:35 51°16.382 2°55.16 25.6 0.6 352 9.5
2008-02-11 10:34:41 51°16.383 2°55.16 26 0.6 351 9.4
2008-02-11 10:34:45 51°16.384 2°55.159 26.3 0.6 352 9.4
2008-02-11 10:34:50 51°16.384 2°55.159 26.8 0.5 353 9.4
2008-02-11 10:34:55 51°16.385 2°55.159 27 0.5 346 9.4
2008-02-11 10:35:01 51°16.386 2°55.158 27.4 0.5 349 9.4
2008-02-11 10:35:05 51°16.387 2°55.158 27.6 0.5 340 9.4
2008-02-11 10:35:10 51°16.387 2°55.158 28 0.4 345 9.5
2008-02-11 10:35:15 51°16.388 2°55.158 28.3 0.5 335 9.5
2008-02-11 10:35:21 51°16.389 2°55.157 28.9 0.4 339 9.5
2008-02-11 10:35:25 51°16.389 2°55.157 29.4 0.4 339 9.4
2008-02-11 10:35:30 51°16.389 2°55.157 29.6 0.3 348 9.4
2008-02-11 10:35:35 51°16.39 2°55.156 30 0.4 333 9.4
2008-02-11 10:35:40 51°16.39 2°55.156 30.4 0.3 339 9.4
2008-02-11 10:35:45 51°16.391 2°55.156 30.9 0.4 327 9.5
2008-02-11 10:35:50 51°16.392 2°55.155 31.2 0.3 337 9.4
2008-02-11 10:35:55 51°16.392 2°55.155 31.5 0.4 321 9.5
2008-02-11 10:36:01 51°16.392 2°55.155 31.9 0.2 324 9.5
2008-02-11 10:36:05 51°16.392 2°55.154 32.4 0.3 316 9.5
2008-02-11 10:36:10 51°16.392 2°55.154 32.7 0.2 310 9.4
2008-02-11 10:36:15 51°16.392 2°55.153 33.2 0.3 306 9.5
2008-02-11 10:36:21 51°16.392 2°55.153 33.5 0.2 303 9.5
2008-02-11 10:36:25 51°16.393 2°55.152 33.9 0.2 301 9.4
2008-02-11 10:36:30 51°16.393 2°55.152 34.4 0.2 287 9.5
2008-02-11 10:36:35 51°16.393 2°55.152 34.8 0.3 294 9.4
2008-02-11 10:36:41 51°16.393 2°55.151 35.2 0.2 288 9.5
2008-02-11 10:36:45 51°16.393 2°55.151 35.6 0.2 282 9.5
2008-02-11 10:36:51 51°16.393 2°55.15 36.2 0.2 277 9.5
2008-02-11 10:36:55 51°16.393 2°55.15 36.6 0.2 274 9.4
2008-02-11 10:37:01 51°16.393 2°55.149 37 0.2 268 9.5
2008-02-11 10:37:05 51°16.393 2°55.149 37.6 0.2 256 9.5